クグルクトゥク の空港の天気 - METARとTAF

Coppermine ( CYCO / YCO ) - カナダ ヌナブト準州Kugluktuk
飛行場実況気象(Metar)
観測時間07/16 00:00 MDT (07/16 06:00 UTC)
風向・風速南西 3m/s
視程10km以上
天気現象弱いしゅう雨
少しの雲 雲底高度 370m
全天の4割程度の雲 雲底高度 1710m
全天の8割程度の雲 雲底高度 1920m
全天の8割程度の雲 雲底高度 2500m
気温12℃
湿度82%
気圧1011.1hPa
METARCYCO 160600Z 23005KT 12SM -SHRA FEW012 SCT056 BKN063 BKN082 12/09 A2985 RMK CF1CU4SC2AS1 CF TR SLP111
過去の天気等 Google飛行場航空写真 Wunderground天気予報

過去48時間のMETAR

飛行場予報(TAF)
発表時間: 7/15 18:38 MDT (7/16 00:38 UTC)
予報対象時間: 15日19時 MDT ~ 16日7時 MDT
風向・風速東 4m/s
視程10km以上
全天の4割程度の雲 雲底高度 1520m
全天の8割程度の雲 雲底高度 3660m
15日19時 MDT ~ 16日3時 MDT に一時的に
視程10km以上
天気現象弱いしゅう雨
全天の8割程度の雲 雲底高度 1520m
全天を覆う雲 雲底高度 3050m
15日19時 MDT ~ 15日21時 MDT に徐々に
風向・風速南 3m/s
16日3時 MDT から
風向・風速南南東 4m/s
視程10km以上
全天の4割程度の雲 雲底高度 610m
全天を覆う雲 雲底高度 1220m
16日3時 MDT ~ 16日7時 MDT に一時的に
視程8050m
天気現象弱いしゅう雨 もや
全天を覆う雲 雲底高度 610m
TAF CYCO 160038Z 1601/1613 09008KT P6SM SCT050 BKN120
TEMPO 1601/1609 P6SM -SHRA BKN050 OVC100
BECMG 1601/1603 19005KT
FM160900 16008KT P6SM SCT020 OVC040
TEMPO 1609/1613 5SM -SHRA BR OVC020 RMK NXT FCST BY 160700Z